Airfield :
LOGIN :

Register | Disclaimer

   EN    FR    IT 

 










Legend :    VFR   Marginal VFR   IFR   Intensive IFR   Very Intensive IFR
Visi :
Ceiling :
>= 8 km
>= 3000ft
5 to 8 km
1000 to 3000 ft
1500m to 5 km
500 to 1000 ft
800 to 1500m
200 to 500 ft
< 800m
< 200 ft
Symbols :   Thunderstorms  Fog  Heavy snow  Heavy precipitations  Wind > 20 kt
SIGMETs :     Misc.  Thunderstorms  Icing  Turbulence  Mountain Waves  Volcanic Ashes






- Airport Elevation : 27 ft
- IATA code : SVJ


ENSH - Svolvær Helle

CURRENT METAR :
  • 191950Z AUTO 24006KT 9999 OVC008/// 15/13 Q1018 RMK WIND 0150FT /////KT

EXPIRED METARs :
  • 191920Z AUTO 23007KT 9999 OVC008/// 15/13 Q1018 RMK WIND 0150FT /////KT
  • 191850Z 22009KT 9999 FEW005 BKN008 15/13 Q1017 RMK WIND 0150FT /////KT
  • 191820Z 22009KT 9999 FEW005 BKN008 15/13 Q1017 RMK WIND 0150FT /////KT
  • 191750Z /////KT 9999 FEW005 BKN008 15/13 Q1017 RMK WIND RWY18 21009KT WIND 0150FT /////KT
  • 191720Z 22009KT 9999 FEW005 BKN007 15/13 Q1017 RMK WIND 0150FT /////KT
  • 191650Z 22010KT 9999 FEW005 BKN008 16/14 Q1017 RMK WIND 0150FT /////KT
  • 191550Z 21010KT 9999 SCT006 BKN008 16/14 Q1017 RMK WIND 0150FT /////KT
  • 191520Z 22009KT 9999 SCT005 BKN008 16/14 Q1017 RMK WIND 0150FT /////KT

TAF AMD TAF ENSH
Valid from the 19 at 19:00 until the 19 at 22:00 UTC


191929Z 1919/1922 22006KT 9999 FEW006 BKN009
PROB40 1919/1922 SCT009 BKN018



MET'MAP, your aeronautical weather chart ! - Copyright ORBIFLY December 2007 - Disclaimer

ORBIFLY MET'MAP TEAM :

Programming & Development : Alexandra Zaïnal
Original concept : Baudouin d'Aumeries
Technical & hardware support : Manuel Goepfert
Assistance : Marc-Olivier Méhu




SOURCES & CREDITS :

   NOAA